Time;durP1;ratioP1;P1;durP2;ratioP2;P2;SDS_P1;SDS_P2;PMS_P1;PMS_P2;Temp;Humidity;BMP_temperature;BMP_pressure;BME280_temperature;BME280_humidity;BME280_pressure;Samples;Min_cycle;Max_cycle;Signal;HPM_P1;HPM_P2
2022/09/02 04:46:40;;;;;;;2.45;1.05;;;18.30;60.10;;;;;;6191329;23;20649;-70
2022/09/02 04:49:06;;;;;;;7.55;1.25;;;18.30;60.10;;;;;;6188067;23;20063;-75
2022/09/02 04:51:32;;;;;;;7.82;0.90;;;18.20;60.40;;;;;;6162268;23;20105;-72
2022/09/02 04:53:59;;;;;;;2.95;0.70;;;18.20;60.30;;;;;;6188253;23;20021;-72
2022/09/02 04:56:27;;;;;;;4.32;1.27;;;18.30;60.40;;;;;;6187600;23;20095;-71
2022/09/02 04:58:54;;;;;;;5.57;1.20;;;18.30;59.70;;;;;;6188201;23;20088;-71
2022/09/02 05:01:26;;;;;;;5.82;0.93;;;18.30;59.70;;;;;;6187628;23;20017;-71
2022/09/02 05:04:01;;;;;;;6.15;1.35;;;18.20;60.10;;;;;;6187372;23;20017;-81
2022/09/02 05:06:38;;;;;;;7.22;0.93;;;18.20;60.10;;;;;;6139745;23;20021;-73
2022/09/02 05:09:05;;;;;;;7.30;1.20;;;18.20;60.30;;;;;;6187345;23;20012;-72
2022/09/02 05:11:32;;;;;;;6.70;1.48;;;18.10;60.40;;;;;;6186704;23;20422;-72
2022/09/02 05:14:02;;;;;;;4.32;0.70;;;18.10;60.80;;;;;;6187964;23;20361;-72
2022/09/02 05:16:38;;;;;;;9.43;1.83;;;18.10;61.10;;;;;;6188217;23;20021;-73
2022/09/02 05:19:08;;;;;;;9.50;1.08;;;18.10;61.30;;;;;;6188072;23;20016;-70
2022/09/02 05:21:37;;;;;;;8.20;1.42;;;18.10;61.50;;;;;;6186819;23;20063;-72
2022/09/02 05:24:03;;;;;;;5.15;1.13;;;18.10;61.60;;;;;;6188086;23;20373;-72
2022/09/02 05:26:29;;;;;;;13.30;1.42;;;18.10;61.70;;;;;;6187646;23;20025;-73
2022/09/02 05:28:54;;;;;;;12.55;1.95;;;18.10;61.90;;;;;;6187565;23;20047;-73
2022/09/02 05:31:21;;;;;;;21.52;2.85;;;18.10;62.00;;;;;;6187664;23;20021;-69
2022/09/02 05:33:47;;;;;;;23.90;3.50;;;18.20;62.60;;;;;;6187628;23;20013;-72
2022/09/02 05:36:19;;;;;;;12.95;2.05;;;18.30;62.30;;;;;;6187740;23;20310;-72
2022/09/02 05:38:46;;;;;;;9.70;1.58;;;18.30;61.90;;;;;;6187819;23;20020;-72
2022/09/02 05:41:18;;;;;;;9.73;1.65;;;18.40;61.70;;;;;;6187851;23;20088;-72
2022/09/02 05:43:44;;;;;;;11.15;1.67;;;18.40;61.50;;;;;;6187681;23;20021;-72
2022/09/02 05:46:16;;;;;;;6.00;1.30;;;18.40;61.40;;;;;;6187779;23;20017;-72
2022/09/02 05:51:27;;;;;;;6.90;1.02;;;18.40;61.40;;;;;;6217868;23;20021;-72
2022/09/02 05:53:54;;;;;;;5.55;1.00;;;18.40;61.50;;;;;;6217269;23;20084;-72
2022/09/02 05:56:21;;;;;;;12.52;1.70;;;18.40;61.40;;;;;;6218162;23;20021;-72
2022/09/02 05:58:48;;;;;;;10.05;1.38;;;18.40;61.50;;;;;;6218154;23;20349;-72
2022/09/02 06:01:15;;;;;;;21.05;2.63;;;18.40;61.60;;;;;;6218029;23;20016;-74
2022/09/02 06:03:41;;;;;;;15.75;2.15;;;18.40;61.70;;;;;;6192290;23;20017;-72
2022/09/02 06:06:07;;;;;;;14.65;2.05;;;18.40;61.60;;;;;;6219278;23;20092;-72
2022/09/02 06:08:34;;;;;;;7.35;1.20;;;18.40;62.10;;;;;;6219562;23;20067;-71
2022/09/02 06:11:00;;;;;;;7.43;1.00;;;18.40;61.50;;;;;;6220195;23;20028;-72
2022/09/02 06:13:32;;;;;;;6.03;1.10;;;18.40;61.40;;;;;;6219437;23;20158;-72
2022/09/02 06:15:58;;;;;;;4.20;0.90;;;18.40;61.40;;;;;;6219188;23;20431;-72
2022/09/02 06:18:24;;;;;;;3.03;0.77;;;18.40;61.40;;;;;;6219251;23;20051;-72
2022/09/02 06:20:50;;;;;;;6.15;1.25;;;18.40;61.40;;;;;;6220302;23;20020;-72
2022/09/02 06:23:16;;;;;;;3.05;0.63;;;18.40;61.40;;;;;;6219458;23;20021;-72
2022/09/02 06:25:45;;;;;;;5.10;1.00;;;18.40;61.40;;;;;;6219116;23;20017;-72
2022/09/02 06:28:12;;;;;;;5.53;1.00;;;18.40;61.40;;;;;;6220193;23;20058;-72
2022/09/02 06:30:40;;;;;;;1.45;0.63;;;18.40;61.40;;;;;;6218915;23;20158;-72
2022/09/02 06:33:06;;;;;;;1.70;0.68;;;18.50;61.40;;;;;;6219196;23;20095;-73
2022/09/02 06:35:37;;;;;;;3.95;0.50;;;18.40;61.30;;;;;;6219281;23;20013;-71
2022/09/02 06:38:03;;;;;;;3.05;0.70;;;18.40;61.30;;;;;;6218744;23;20016;-70
2022/09/02 06:40:29;;;;;;;2.17;0.43;;;18.40;61.20;;;;;;6219286;23;20020;-72
2022/09/02 06:42:55;;;;;;;3.30;1.13;;;18.40;61.30;;;;;;6219711;23;20016;-71
2022/09/02 06:45:23;;;;;;;2.08;0.70;;;18.50;61.10;;;;;;6219998;23;20431;-72
2022/09/02 06:47:50;;;;;;;1.45;0.80;;;18.50;61.50;;;;;;6219144;23;20037;-72
2022/09/02 06:50:16;;;;;;;1.63;0.60;;;18.50;60.80;;;;;;6219114;23;20029;-72
2022/09/02 06:52:42;;;;;;;9.77;0.88;;;18.50;60.80;;;;;;6219217;23;20017;-72
2022/09/02 06:55:09;;;;;;;2.03;0.70;;;18.50;60.80;;;;;;6219404;23;20012;-72
2022/09/02 06:57:36;;;;;;;3.10;0.60;;;18.40;60.80;;;;;;6219729;23;20020;-72
2022/09/02 07:00:07;;;;;;;4.13;0.93;;;18.40;60.90;;;;;;6218145;23;20016;-72
2022/09/02 07:02:33;;;;;;;3.15;0.57;;;18.40;61.20;;;;;;6219196;23;20162;-72
2022/09/02 07:05:08;;;;;;;1.27;0.77;;;18.40;61.40;;;;;;6220010;23;20028;-72
2022/09/02 07:07:39;;;;;;;1.67;0.47;;;18.50;61.60;;;;;;6219899;23;20089;-72
2022/09/02 07:10:08;;;;;;;2.67;0.40;;;18.50;61.80;;;;;;6218272;23;20425;-74
2022/09/02 07:12:39;;;;;;;2.13;0.50;;;18.60;61.90;;;;;;6218468;23;20452;-70
2022/09/02 07:15:05;;;;;;;0.98;0.40;;;18.60;62.00;;;;;;6218589;23;20012;-71
2022/09/02 07:17:32;;;;;;;2.53;0.40;;;18.60;62.20;;;;;;6218876;23;20012;-73
2022/09/02 07:19:59;;;;;;;1.10;0.40;;;18.70;62.30;;;;;;6218978;23;20028;-73
2022/09/02 07:22:26;;;;;;;2.75;0.88;;;18.70;62.20;;;;;;6218956;23;20016;-73
2022/09/02 07:24:52;;;;;;;2.72;1.00;;;18.80;62.00;;;;;;6218311;23;20025;-74
2022/09/02 07:27:19;;;;;;;3.42;0.70;;;18.80;61.70;;;;;;6218745;23;20023;-71
2022/09/02 07:29:47;;;;;;;4.05;0.57;;;18.80;61.50;;;;;;6218465;23;20489;-72
2022/09/02 07:32:14;;;;;;;1.25;0.50;;;18.80;61.80;;;;;;6193586;23;20368;-73
2022/09/02 07:34:40;;;;;;;2.65;0.70;;;18.80;62.00;;;;;;6219205;23;20012;-72
2022/09/02 07:37:06;;;;;;;4.40;0.82;;;18.80;62.10;;;;;;6218790;23;20104;-73
2022/09/02 07:39:32;;;;;;;2.25;0.63;;;18.90;62.10;;;;;;6219502;23;20024;-72
2022/09/02 07:41:58;;;;;;;1.67;0.35;;;18.80;62.10;;;;;;6218830;23;20027;-71
2022/09/02 07:44:23;;;;;;;2.63;0.50;;;18.90;62.30;;;;;;6218324;23;20024;-72
2022/09/02 07:46:50;;;;;;;3.60;0.57;;;18.90;62.30;;;;;;6217805;23;20055;-73
2022/09/02 07:49:16;;;;;;;1.73;0.70;;;18.90;62.80;;;;;;6192529;23;20020;-72
2022/09/02 07:51:47;;;;;;;1.45;0.47;;;19.00;62.90;;;;;;6218704;23;20012;-71
2022/09/02 07:54:13;;;;;;;1.83;0.57;;;19.00;62.60;;;;;;6218561;23;20032;-71
2022/09/02 07:56:39;;;;;;;1.98;0.60;;;19.00;62.60;;;;;;6219696;23;20017;-72
2022/09/02 07:59:05;;;;;;;2.38;0.40;;;19.00;62.50;;;;;;6218396;23;20013;-72
2022/09/02 08:01:31;;;;;;;2.95;0.50;;;19.10;62.60;;;;;;6218281;23;20031;-72
2022/09/02 08:03:57;;;;;;;2.08;0.60;;;19.10;62.50;;;;;;6218635;23;20421;-73
2022/09/02 08:06:26;;;;;;;3.67;0.68;;;19.10;62.50;;;;;;6191502;23;20100;-76
2022/09/02 08:08:53;;;;;;;5.57;0.60;;;19.20;62.50;;;;;;6217567;23;20032;-73
2022/09/02 08:11:19;;;;;;;3.15;0.50;;;19.20;62.50;;;;;;6217975;23;20448;-72
2022/09/02 08:13:45;;;;;;;3.10;0.70;;;19.20;62.40;;;;;;6218390;23;20429;-77
2022/09/02 11:31:57;;;;;;;4.82;1.10;;;20.30;60.90;;;;;;6199317;22;20555;-73
2022/09/02 11:34:33;;;;;;;4.20;0.85;;;20.30;61.40;;;;;;6218902;23;20017;-79
2022/09/02 11:37:05;;;;;;;4.30;0.50;;;20.40;61.40;;;;;;6218591;23;20412;-75
2022/09/02 11:39:36;;;;;;;4.80;1.00;;;20.30;61.20;;;;;;6192635;23;20017;-74
2022/09/02 11:42:20;;;;;;;2.80;1.00;;;20.40;61.50;;;;;;6219766;23;20020;-73
2022/09/02 11:44:49;;;;;;;4.25;0.75;;;20.40;61.50;;;;;;6218756;23;20027;-75
2022/09/02 11:47:42;;;;;;;3.63;0.90;;;20.40;61.50;;;;;;6218007;23;20087;-76
2022/09/02 11:50:19;;;;;;;3.97;0.70;;;20.40;61.80;;;;;;6218263;23;20087;-79
2022/09/02 11:53:04;;;;;;;2.83;0.80;;;20.40;61.50;;;;;;6166692;23;20490;-75
2022/09/02 11:55:32;;;;;;;3.50;0.73;;;20.40;60.80;;;;;;6218000;23;20024;-74
2022/09/02 11:57:58;;;;;;;1.65;0.40;;;20.40;60.90;;;;;;6218528;23;20025;-73
2022/09/02 12:00:29;;;;;;;3.35;0.60;;;20.40;61.00;;;;;;6167164;23;20027;-75
2022/09/02 12:03:05;;;;;;;3.60;0.85;;;20.40;61.10;;;;;;6218111;23;20020;-75
2022/09/02 12:05:31;;;;;;;4.28;0.45;;;20.40;61.00;;;;;;6218070;23;20487;-74
2022/09/02 12:08:04;;;;;;;1.40;0.47;;;20.40;61.00;;;;;;6218320;23;20028;-75
2022/09/02 12:10:42;;;;;;;2.40;0.65;;;20.50;60.90;;;;;;6218369;23;20027;-74
2022/09/02 12:13:39;;;;;;;1.95;0.68;;;20.50;60.90;;;;;;6191991;23;20532;-76
2022/09/02 12:16:11;;;;;;;1.67;0.65;;;20.50;60.80;;;;;;6218170;23;20016;-74
2022/09/02 12:18:38;;;;;;;1.25;0.68;;;20.50;60.80;;;;;;6219099;23;20017;-75
2022/09/02 12:21:11;;;;;;;2.65;0.55;;;20.50;60.80;;;;;;6167200;23;20079;-73
2022/09/02 12:23:55;;;;;;;1.52;0.45;;;20.50;60.50;;;;;;6218243;23;20392;-74
2022/09/02 12:26:49;;;;;;;3.55;0.63;;;20.50;60.60;;;;;;6218168;23;20016;-74
2022/09/02 12:29:18;;;;;;;8.77;0.88;;;20.50;60.80;;;;;;6218211;23;20028;-75
2022/09/02 12:31:46;;;;;;;4.10;0.93;;;20.50;60.80;;;;;;6218332;23;20016;-75
2022/09/02 12:34:23;;;;;;;3.75;0.75;;;20.50;60.40;;;;;;6217863;23;20425;-77
2022/09/02 12:36:50;;;;;;;4.13;0.80;;;20.60;60.00;;;;;;6167541;23;20096;-76
2022/09/02 12:39:26;;;;;;;3.80;0.80;;;20.60;57.90;;;;;;6218042;23;20352;-77
2022/09/02 12:42:09;;;;;;;2.65;0.70;;;20.60;57.40;;;;;;6217718;23;20031;-79
2022/09/02 12:44:44;;;;;;;4.57;0.90;;;20.60;58.20;;;;;;6217888;23;20028;-72
2022/09/02 12:47:24;;;;;;;2.22;0.60;;;20.60;58.70;;;;;;6218108;23;20032;-76
2022/09/02 12:50:06;;;;;;;4.07;0.70;;;20.60;59.00;;;;;;6218136;23;20356;-76
2022/09/02 12:52:40;;;;;;;4.57;1.00;;;20.60;59.20;;;;;;6218477;23;20009;-79
2022/09/02 15:00:21;;;;;;;3.80;0.70;;;20.90;61.20;;;;;;6188391;23;20035;-74
2022/09/02 15:02:55;;;;;;;3.15;0.70;;;20.90;60.70;;;;;;6161334;23;20079;-72
2022/09/02 15:05:23;;;;;;;2.45;0.70;;;20.90;60.70;;;;;;6189025;23;20448;-75
2022/09/02 15:07:49;;;;;;;3.00;0.52;;;20.90;59.70;;;;;;6188969;23;20024;-74
2022/09/02 15:10:14;;;;;;;2.88;0.60;;;20.90;59.60;;;;;;6188911;23;20092;-74
2022/09/02 15:12:49;;;;;;;2.03;0.60;;;21.00;59.50;;;;;;6188830;23;20021;-75
2022/09/02 15:15:16;;;;;;;1.50;0.60;;;21.00;59.00;;;;;;6188843;23;20379;-74
2022/09/02 15:17:41;;;;;;;2.78;0.68;;;21.00;59.30;;;;;;6188783;23;20021;-76
2022/09/02 15:20:07;;;;;;;2.03;0.60;;;21.00;58.90;;;;;;6188922;23;20075;-75
2022/09/02 15:22:34;;;;;;;1.45;0.45;;;21.00;58.80;;;;;;6188647;23;20087;-75
2022/09/02 15:24:59;;;;;;;1.58;0.45;;;21.00;58.80;;;;;;6189139;23;20139;-75
2022/09/02 15:27:25;;;;;;;1.40;0.50;;;21.00;58.80;;;;;;6189318;23;20060;-75
2022/09/02 15:29:51;;;;;;;2.92;0.85;;;21.10;59.00;;;;;;6188721;23;20017;-75
2022/09/02 15:32:17;;;;;;;2.10;0.50;;;21.10;59.40;;;;;;6188511;23;20017;-74
2022/09/02 15:34:43;;;;;;;1.70;0.82;;;21.10;59.00;;;;;;6162608;23;20031;-76
2022/09/02 15:37:09;;;;;;;0.82;0.52;;;21.10;59.80;;;;;;6162397;23;20021;-76
2022/09/02 15:39:35;;;;;;;1.52;0.43;;;21.00;59.00;;;;;;6188707;23;20017;-75
2022/09/02 15:42:01;;;;;;;1.80;0.40;;;21.10;59.00;;;;;;6188628;23;20017;-76
2022/09/02 15:44:28;;;;;;;1.20;0.40;;;21.10;59.40;;;;;;6188645;23;20094;-75
2022/09/02 15:46:54;;;;;;;1.60;0.50;;;21.10;59.60;;;;;;6188535;23;20025;-75
2022/09/02 15:49:22;;;;;;;0.75;0.47;;;21.10;59.40;;;;;;6162826;23;20036;-75
2022/09/02 15:51:49;;;;;;;1.20;0.55;;;21.10;59.70;;;;;;6188624;23;20025;-75
2022/09/02 15:54:17;;;;;;;4.53;0.80;;;21.10;59.20;;;;;;6189263;23;20013;-75
2022/09/02 15:56:44;;;;;;;7.40;1.00;;;21.10;58.50;;;;;;6188570;23;20028;-76
2022/09/02 15:59:13;;;;;;;2.58;0.82;;;21.20;57.60;;;;;;6186977;23;20024;-70
2022/09/02 16:01:40;;;;;;;6.32;1.27;;;21.20;58.60;;;;;;6187402;23;20100;-75
2022/09/02 16:04:07;;;;;;;9.50;1.45;;;21.20;59.20;;;;;;6188250;23;20027;-77
2022/09/02 16:06:36;;;;;;;12.18;2.08;;;21.20;59.20;;;;;;6188517;23;20306;-74
2022/09/02 16:09:02;;;;;;;20.45;2.83;;;21.20;60.00;;;;;;6188576;23;20087;-75
2022/09/02 16:11:28;;;;;;;18.00;3.47;;;21.20;60.50;;;;;;6188430;23;20437;-73
2022/09/02 16:13:54;;;;;;;15.32;2.72;;;21.20;61.80;;;;;;6188211;23;20405;-76
2022/09/02 16:16:20;;;;;;;11.88;2.20;;;21.20;63.10;;;;;;6188377;23;20032;-71
2022/09/02 16:18:51;;;;;;;8.93;2.17;;;21.30;64.90;;;;;;6188431;23;20017;-74
2022/09/02 16:21:17;;;;;;;10.18;2.38;;;21.30;64.50;;;;;;6189268;23;20103;-77
2022/09/02 16:23:44;;;;;;;15.27;2.83;;;21.40;63.80;;;;;;6188052;23;20055;-76
2022/09/02 16:26:27;;;;;;;14.68;2.78;;;21.40;64.30;;;;;;6162521;23;20017;-77
2022/09/02 16:28:55;;;;;;;5.90;1.90;;;21.50;64.70;;;;;;6188454;23;20032;-77
2022/09/02 16:31:24;;;;;;;6.60;1.95;;;21.50;62.80;;;;;;6187855;23;20020;-81
2022/09/02 16:34:10;;;;;;;3.45;1.33;;;21.50;63.20;;;;;;6188544;23;20413;-69
2022/09/02 16:36:39;;;;;;;5.78;1.27;;;21.50;62.80;;;;;;6187378;23;20017;-76
2022/09/02 16:39:06;;;;;;;6.10;1.50;;;21.50;61.00;;;;;;6187911;23;20017;-76
2022/09/02 16:41:34;;;;;;;7.35;1.52;;;21.60;61.10;;;;;;6189413;23;20092;-75
2022/09/02 16:44:07;;;;;;;8.02;2.10;;;21.50;61.20;;;;;;6188499;23;20092;-75
2022/09/02 16:46:34;;;;;;;7.78;1.10;;;21.50;62.50;;;;;;6188650;23;20021;-76
2022/09/02 16:49:00;;;;;;;5.80;1.05;;;21.60;60.50;;;;;;6188856;23;20322;-76
2022/09/02 16:51:29;;;;;;;4.70;1.67;;;21.50;59.00;;;;;;6188420;23;20021;-76
2022/09/02 16:53:59;;;;;;;7.75;1.27;;;21.50;60.10;;;;;;6187703;23;20433;-75
2022/09/02 16:56:25;;;;;;;6.88;1.48;;;21.50;61.30;;;;;;6187918;23;20020;-75
2022/09/02 16:58:51;;;;;;;7.32;1.75;;;21.50;61.90;;;;;;6187959;23;20021;-76
2022/09/02 17:01:18;;;;;;;8.15;1.35;;;21.50;61.70;;;;;;6188610;23;20024;-76
2022/09/02 17:03:45;;;;;;;9.23;1.20;;;21.50;61.30;;;;;;6187401;23;20052;-74
2022/09/02 17:06:12;;;;;;;7.43;1.17;;;21.40;60.90;;;;;;6187905;23;20021;-75
2022/09/02 17:08:38;;;;;;;6.38;1.60;;;21.50;60.80;;;;;;6188639;23;20013;-74
2022/09/02 17:11:19;;;;;;;12.13;1.80;;;21.50;60.80;;;;;;6187702;23;20415;-75
2022/09/02 17:13:55;;;;;;;11.93;1.52;;;21.50;61.00;;;;;;6187872;23;20021;-75
2022/09/02 17:16:24;;;;;;;9.10;1.55;;;21.50;60.60;;;;;;6187204;23;20031;-76
2022/09/02 17:18:51;;;;;;;11.95;1.67;;;21.50;60.20;;;;;;6187470;23;20013;-76
2022/09/02 17:21:34;;;;;;;12.85;1.38;;;21.50;59.90;;;;;;6188050;23;20350;-75
2022/09/02 17:24:01;;;;;;;4.55;1.33;;;21.50;59.80;;;;;;6188379;23;20352;-76
2022/09/02 17:26:29;;;;;;;5.72;1.17;;;21.50;59.50;;;;;;6187120;23;20027;-76
2022/09/02 17:28:57;;;;;;;21.15;3.17;;;21.40;59.10;;;;;;6160815;23;20088;-75
2022/09/02 17:31:27;;;;;;;15.40;1.80;;;21.40;59.60;;;;;;6160677;23;20017;-75
2022/09/02 17:33:54;;;;;;;9.85;1.35;;;21.40;59.90;;;;;;6187622;23;20017;-76
2022/09/02 17:36:21;;;;;;;17.90;1.70;;;21.40;60.20;;;;;;6187360;23;20017;-76
2022/09/02 17:38:47;;;;;;;10.23;1.83;;;21.40;60.50;;;;;;6187741;23;20033;-76
2022/09/02 17:43:58;;;;;;;9.25;1.27;;;21.40;60.60;;;;;;6187474;23;20021;-76
2022/09/02 17:46:25;;;;;;;12.00;2.05;;;21.40;60.90;;;;;;6187236;23;20023;-76
2022/09/02 17:48:51;;;;;;;8.48;1.55;;;21.40;61.10;;;;;;6187782;23;20056;-74
2022/09/02 17:51:17;;;;;;;5.63;1.10;;;21.40;61.00;;;;;;6187191;23;20023;-75
2022/09/02 17:53:44;;;;;;;9.13;1.85;;;21.40;60.90;;;;;;6187176;23;20056;-76
2022/09/02 17:56:35;;;;;;;4.97;1.17;;;21.40;60.80;;;;;;6187874;23;20028;-77
2022/09/02 17:59:25;;;;;;;6.88;1.83;;;21.40;60.80;;;;;;6188055;23;20074;-76
2022/09/02 18:02:18;;;;;;;6.05;0.70;;;21.40;61.00;;;;;;6189858;23;20020;-77
2022/09/02 18:04:58;;;;;;;3.80;0.85;;;21.40;61.30;;;;;;6163343;23;20017;-77
2022/09/02 18:07:48;;;;;;;3.88;1.13;;;21.40;61.20;;;;;;6189704;23;20036;-77
2022/09/02 18:10:14;;;;;;;7.75;1.30;;;21.40;61.10;;;;;;6163854;23;20421;-77
2022/09/02 18:12:41;;;;;;;1.88;0.52;;;21.30;61.10;;;;;;6189113;23;20028;-77
2022/09/02 20:18:26;;;;;;;5.55;1.02;;;20.70;57.40;;;;;;6194703;23;20559;-73
2022/09/02 20:20:54;;;;;;;7.63;1.70;;;20.70;57.70;;;;;;6187685;23;20060;-73
2022/09/02 20:23:21;;;;;;;4.05;1.30;;;20.70;58.10;;;;;;6188674;23;20021;-75
2022/09/02 20:26:15;;;;;;;6.57;1.17;;;20.70;58.50;;;;;;6187458;23;20428;-74
2022/09/02 20:28:59;;;;;;;2.65;0.93;;;20.70;58.70;;;;;;6188346;23;20092;-76
2022/09/02 20:31:54;;;;;;;7.40;1.10;;;20.80;59.50;;;;;;6188292;23;20080;-77
2022/09/02 20:34:28;;;;;;;5.28;1.10;;;20.80;58.80;;;;;;6188261;23;20021;-73
2022/09/02 20:37:21;;;;;;;8.02;0.90;;;20.70;59.20;;;;;;6188184;23;20031;-72
2022/09/02 20:40:25;;;;;;;1.77;1.00;;;20.80;59.70;;;;;;6188220;23;20032;-73
2022/09/02 20:43:26;;;;;;;2.88;0.82;;;20.80;59.30;;;;;;6162340;23;20028;-74
2022/09/02 20:46:03;;;;;;;4.70;0.90;;;20.80;59.20;;;;;;6188321;23;20482;-74
2022/09/02 20:48:57;;;;;;;2.67;0.98;;;20.80;59.40;;;;;;6188172;23;20341;-74
2022/09/02 20:51:35;;;;;;;4.20;1.13;;;20.80;60.00;;;;;;6187115;23;20349;-75
2022/09/02 20:54:21;;;;;;;2.85;0.82;;;20.80;59.60;;;;;;6188030;23;20062;-74
2022/09/02 20:57:08;;;;;;;4.00;0.80;;;20.80;59.80;;;;;;6188036;23;20009;-73
2022/09/02 20:59:42;;;;;;;3.10;0.73;;;20.80;59.80;;;;;;6188061;23;20373;-75
2022/09/02 21:02:12;;;;;;;2.78;1.10;;;20.80;60.00;;;;;;6188127;23;20314;-76
2022/09/02 21:04:45;;;;;;;8.80;1.13;;;20.80;60.40;;;;;;6187993;23;20075;-76
2022/09/02 21:07:13;;;;;;;4.32;0.70;;;20.80;60.50;;;;;;6188370;23;20017;-77
2022/09/02 21:10:05;;;;;;;3.40;0.90;;;20.80;60.50;;;;;;6188057;23;20021;-78
2022/09/02 21:12:32;;;;;;;3.85;0.70;;;20.90;60.70;;;;;;6162189;23;20086;-77
2022/09/02 21:15:09;;;;;;;4.97;1.02;;;20.90;60.80;;;;;;6187671;23;20084;-77
2022/09/02 21:17:50;;;;;;;5.95;0.90;;;20.90;60.80;;;;;;6188916;23;20077;-77
2022/09/02 21:20:28;;;;;;;2.20;0.88;;;20.90;60.60;;;;;;6210813;23;20017;-76
2022/09/02 21:22:59;;;;;;;4.32;0.80;;;20.90;60.90;;;;;;6217578;23;20436;-78
2022/09/02 21:25:56;;;;;;;3.58;0.80;;;20.90;60.90;;;;;;6217768;23;20346;-76
